sensor_id;sensor_type;location;lat;lon;timestamp;temperature;humidity
40153;DHT22;26371;56.992;23.912;2023-06-19T00:02:27;17.00;99.90
40153;DHT22;26371;56.992;23.912;2023-06-19T00:04:58;17.00;99.90
40153;DHT22;26371;56.992;23.912;2023-06-19T00:07:28;17.00;99.90
40153;DHT22;26371;56.992;23.912;2023-06-19T00:09:58;17.00;99.90
40153;DHT22;26371;56.992;23.912;2023-06-19T00:12:28;17.00;99.90
40153;DHT22;26371;56.992;23.912;2023-06-19T00:14:56;17.00;99.90
40153;DHT22;26371;56.992;23.912;2023-06-19T00:17:25;17.00;99.90
40153;DHT22;26371;56.992;23.912;2023-06-19T00:19:54;17.10;99.90
40153;DHT22;26371;56.992;23.912;2023-06-19T00:22:24;17.10;99.90
40153;DHT22;26371;56.992;23.912;2023-06-19T00:24:52;17.10;99.90
40153;DHT22;26371;56.992;23.912;2023-06-19T00:27:22;17.10;99.90
40153;DHT22;26371;56.992;23.912;2023-06-19T00:29:51;17.10;99.90
40153;DHT22;26371;56.992;23.912;2023-06-19T00:32:19;17.20;99.90
40153;DHT22;26371;56.992;23.912;2023-06-19T00:34:48;17.20;99.90
40153;DHT22;26371;56.992;23.912;2023-06-19T00:37:16;17.20;99.90
40153;DHT22;26371;56.992;23.912;2023-06-19T00:39:45;17.20;99.90
40153;DHT22;26371;56.992;23.912;2023-06-19T00:42:13;17.30;99.90
40153;DHT22;26371;56.992;23.912;2023-06-19T00:44:43;17.30;99.90
40153;DHT22;26371;56.992;23.912;2023-06-19T00:47:11;17.40;99.90
40153;DHT22;26371;56.992;23.912;2023-06-19T00:49:44;17.40;99.90
40153;DHT22;26371;56.992;23.912;2023-06-19T00:52:17;17.40;99.90
40153;DHT22;26371;56.992;23.912;2023-06-19T00:54:47;17.40;99.90
40153;DHT22;26371;56.992;23.912;2023-06-19T00:57:18;17.40;99.90
40153;DHT22;26371;56.992;23.912;2023-06-19T00:59:48;17.40;99.90
40153;DHT22;26371;56.992;23.912;2023-06-19T01:02:19;17.30;99.90
40153;DHT22;26371;56.992;23.912;2023-06-19T01:04:50;17.30;99.90
40153;DHT22;26371;56.992;23.912;2023-06-19T01:07:22;17.40;99.90
40153;DHT22;26371;56.992;23.912;2023-06-19T01:09:55;17.40;99.90
40153;DHT22;26371;56.992;23.912;2023-06-19T01:12:27;17.40;99.90
40153;DHT22;26371;56.992;23.912;2023-06-19T01:14:58;17.40;99.90
40153;DHT22;26371;56.992;23.912;2023-06-19T01:17:27;17.40;99.90
40153;DHT22;26371;56.992;23.912;2023-06-19T01:19:56;17.40;99.90
40153;DHT22;26371;56.992;23.912;2023-06-19T01:22:27;17.40;99.90
40153;DHT22;26371;56.992;23.912;2023-06-19T01:24:58;17.50;99.90
40153;DHT22;26371;56.992;23.912;2023-06-19T01:27:27;17.50;99.90
40153;DHT22;26371;56.992;23.912;2023-06-19T01:29:58;17.60;99.90
40153;DHT22;26371;56.992;23.912;2023-06-19T01:32:29;17.60;99.90
40153;DHT22;26371;56.992;23.912;2023-06-19T01:34:59;17.60;99.90
40153;DHT22;26371;56.992;23.912;2023-06-19T01:37:30;17.60;99.90
40153;DHT22;26371;56.992;23.912;2023-06-19T01:40:00;17.60;99.90
40153;DHT22;26371;56.992;23.912;2023-06-19T01:42:31;17.60;99.90
40153;DHT22;26371;56.992;23.912;2023-06-19T01:45:02;17.50;99.90
40153;DHT22;26371;56.992;23.912;2023-06-19T01:47:31;17.50;99.90
40153;DHT22;26371;56.992;23.912;2023-06-19T01:50:00;17.50;99.90
40153;DHT22;26371;56.992;23.912;2023-06-19T01:52:29;17.40;99.90
40153;DHT22;26371;56.992;23.912;2023-06-19T01:54:58;17.40;99.90
40153;DHT22;26371;56.992;23.912;2023-06-19T01:57:27;17.40;99.90
40153;DHT22;26371;56.992;23.912;2023-06-19T01:59:55;17.40;99.90
40153;DHT22;26371;56.992;23.912;2023-06-19T02:02:24;17.30;99.90
40153;DHT22;26371;56.992;23.912;2023-06-19T02:04:55;17.40;99.90
40153;DHT22;26371;56.992;23.912;2023-06-19T02:07:25;17.30;99.90
40153;DHT22;26371;56.992;23.912;2023-06-19T02:09:56;17.30;99.90
40153;DHT22;26371;56.992;23.912;2023-06-19T02:12:26;17.30;99.90
40153;DHT22;26371;56.992;23.912;2023-06-19T02:14:55;17.30;99.90
40153;DHT22;26371;56.992;23.912;2023-06-19T02:17:29;17.30;99.90
40153;DHT22;26371;56.992;23.912;2023-06-19T02:20:03;17.30;99.90
40153;DHT22;26371;56.992;23.912;2023-06-19T02:22:34;17.20;99.90
40153;DHT22;26371;56.992;23.912;2023-06-19T02:25:03;17.30;99.90
40153;DHT22;26371;56.992;23.912;2023-06-19T02:27:33;17.20;99.90
40153;DHT22;26371;56.992;23.912;2023-06-19T02:30:02;17.20;99.90
40153;DHT22;26371;56.992;23.912;2023-06-19T02:32:32;17.20;99.90
40153;DHT22;26371;56.992;23.912;2023-06-19T02:35:02;17.20;99.90
40153;DHT22;26371;56.992;23.912;2023-06-19T02:37:32;17.30;99.90
40153;DHT22;26371;56.992;23.912;2023-06-19T02:40:03;17.30;99.90
40153;DHT22;26371;56.992;23.912;2023-06-19T02:42:35;17.30;99.90
40153;DHT22;26371;56.992;23.912;2023-06-19T02:45:07;17.30;99.90
40153;DHT22;26371;56.992;23.912;2023-06-19T02:47:35;17.30;99.90
40153;DHT22;26371;56.992;23.912;2023-06-19T02:50:04;17.30;99.90
40153;DHT22;26371;56.992;23.912;2023-06-19T02:52:35;17.30;99.90
40153;DHT22;26371;56.992;23.912;2023-06-19T02:55:04;17.30;99.90
40153;DHT22;26371;56.992;23.912;2023-06-19T02:57:35;17.30;99.90
40153;DHT22;26371;56.992;23.912;2023-06-19T03:00:04;17.40;99.90
40153;DHT22;26371;56.992;23.912;2023-06-19T03:02:35;17.40;99.90
40153;DHT22;26371;56.992;23.912;2023-06-19T03:05:03;17.40;99.90
40153;DHT22;26371;56.992;23.912;2023-06-19T03:07:32;17.40;99.90
40153;DHT22;26371;56.992;23.912;2023-06-19T03:10:02;17.50;99.90
40153;DHT22;26371;56.992;23.912;2023-06-19T03:12:31;17.50;99.90
40153;DHT22;26371;56.992;23.912;2023-06-19T03:15:01;17.50;99.90
40153;DHT22;26371;56.992;23.912;2023-06-19T03:17:32;17.60;99.90
40153;DHT22;26371;56.992;23.912;2023-06-19T03:20:01;17.60;99.90
40153;DHT22;26371;56.992;23.912;2023-06-19T03:22:31;17.70;99.90
40153;DHT22;26371;56.992;23.912;2023-06-19T03:24:59;17.70;99.90
40153;DHT22;26371;56.992;23.912;2023-06-19T03:27:28;17.70;99.90
40153;DHT22;26371;56.992;23.912;2023-06-19T03:29:57;17.80;99.90
40153;DHT22;26371;56.992;23.912;2023-06-19T03:32:36;17.80;99.90
40153;DHT22;26371;56.992;23.912;2023-06-19T03:35:05;17.90;99.90
40153;DHT22;26371;56.992;23.912;2023-06-19T03:37:39;17.90;99.90
40153;DHT22;26371;56.992;23.912;2023-06-19T03:40:09;17.80;99.90
40153;DHT22;26371;56.992;23.912;2023-06-19T03:42:45;17.90;99.90
40153;DHT22;26371;56.992;23.912;2023-06-19T03:45:14;18.00;99.90
40153;DHT22;26371;56.992;23.912;2023-06-19T03:47:43;18.00;99.90
40153;DHT22;26371;56.992;23.912;2023-06-19T03:50:12;18.10;99.90
40153;DHT22;26371;56.992;23.912;2023-06-19T03:52:48;18.10;99.90
40153;DHT22;26371;56.992;23.912;2023-06-19T03:55:16;18.10;99.90
40153;DHT22;26371;56.992;23.912;2023-06-19T03:57:44;18.20;99.90
40153;DHT22;26371;56.992;23.912;2023-06-19T04:00:13;18.30;99.90
40153;DHT22;26371;56.992;23.912;2023-06-19T04:02:44;18.30;99.90
40153;DHT22;26371;56.992;23.912;2023-06-19T04:05:14;18.40;99.90
40153;DHT22;26371;56.992;23.912;2023-06-19T04:07:43;18.40;99.90
40153;DHT22;26371;56.992;23.912;2023-06-19T04:10:14;18.40;99.90
40153;DHT22;26371;56.992;23.912;2023-06-19T04:12:42;18.50;99.90
40153;DHT22;26371;56.992;23.912;2023-06-19T04:15:12;18.60;99.90
40153;DHT22;26371;56.992;23.912;2023-06-19T04:17:41;18.70;99.90
40153;DHT22;26371;56.992;23.912;2023-06-19T04:20:11;18.70;99.90
40153;DHT22;26371;56.992;23.912;2023-06-19T04:22:40;18.80;99.90
40153;DHT22;26371;56.992;23.912;2023-06-19T04:25:09;18.80;99.90
40153;DHT22;26371;56.992;23.912;2023-06-19T04:27:38;18.90;99.90
40153;DHT22;26371;56.992;23.912;2023-06-19T04:30:06;18.90;99.90
40153;DHT22;26371;56.992;23.912;2023-06-19T04:32:35;18.90;99.90
40153;DHT22;26371;56.992;23.912;2023-06-19T04:35:08;18.90;99.90
40153;DHT22;26371;56.992;23.912;2023-06-19T04:37:38;18.90;99.90
40153;DHT22;26371;56.992;23.912;2023-06-19T04:40:07;18.90;99.90
40153;DHT22;26371;56.992;23.912;2023-06-19T04:42:35;18.90;99.90
40153;DHT22;26371;56.992;23.912;2023-06-19T04:45:07;18.90;99.90
40153;DHT22;26371;56.992;23.912;2023-06-19T04:47:36;19.00;99.90
40153;DHT22;26371;56.992;23.912;2023-06-19T04:50:20;19.00;99.90
40153;DHT22;26371;56.992;23.912;2023-06-19T04:52:50;19.00;99.90
40153;DHT22;26371;56.992;23.912;2023-06-19T04:55:19;19.00;99.90
40153;DHT22;26371;56.992;23.912;2023-06-19T04:57:47;19.10;99.90
40153;DHT22;26371;56.992;23.912;2023-06-19T05:00:16;19.10;99.90
40153;DHT22;26371;56.992;23.912;2023-06-19T05:02:46;19.10;99.90
40153;DHT22;26371;56.992;23.912;2023-06-19T05:05:15;19.10;99.90
40153;DHT22;26371;56.992;23.912;2023-06-19T05:07:45;19.10;99.90
40153;DHT22;26371;56.992;23.912;2023-06-19T05:12:50;19.30;99.90
40153;DHT22;26371;56.992;23.912;2023-06-19T05:15:19;19.40;99.90
40153;DHT22;26371;56.992;23.912;2023-06-19T05:17:47;19.40;99.90
40153;DHT22;26371;56.992;23.912;2023-06-19T05:20:16;19.40;99.90
40153;DHT22;26371;56.992;23.912;2023-06-19T05:22:44;19.60;99.90
40153;DHT22;26371;56.992;23.912;2023-06-19T05:25:13;19.70;99.90
40153;DHT22;26371;56.992;23.912;2023-06-19T05:27:41;19.90;99.90
40153;DHT22;26371;56.992;23.912;2023-06-19T05:30:12;20.10;99.90
40153;DHT22;26371;56.992;23.912;2023-06-19T05:32:40;20.20;99.90
40153;DHT22;26371;56.992;23.912;2023-06-19T05:35:08;20.40;99.90
40153;DHT22;26371;56.992;23.912;2023-06-19T05:37:41;20.50;99.90
40153;DHT22;26371;56.992;23.912;2023-06-19T05:40:11;20.50;99.90
40153;DHT22;26371;56.992;23.912;2023-06-19T05:42:42;20.60;99.90
40153;DHT22;26371;56.992;23.912;2023-06-19T05:45:12;20.60;99.90
40153;DHT22;26371;56.992;23.912;2023-06-19T05:47:42;20.60;99.90
40153;DHT22;26371;56.992;23.912;2023-06-19T05:50:10;20.60;99.90
40153;DHT22;26371;56.992;23.912;2023-06-19T05:52:38;20.60;99.90
40153;DHT22;26371;56.992;23.912;2023-06-19T05:55:10;20.60;99.90
40153;DHT22;26371;56.992;23.912;2023-06-19T05:57:39;20.60;99.90
40153;DHT22;26371;56.992;23.912;2023-06-19T06:00:08;20.60;99.90
40153;DHT22;26371;56.992;23.912;2023-06-19T06:02:40;20.60;99.90
40153;DHT22;26371;56.992;23.912;2023-06-19T06:05:09;20.60;99.90
40153;DHT22;26371;56.992;23.912;2023-06-19T06:07:38;20.60;99.90
40153;DHT22;26371;56.992;23.912;2023-06-19T06:10:07;20.60;99.90
40153;DHT22;26371;56.992;23.912;2023-06-19T06:12:36;20.60;99.90
40153;DHT22;26371;56.992;23.912;2023-06-19T06:15:05;20.60;99.90
40153;DHT22;26371;56.992;23.912;2023-06-19T06:17:33;20.60;99.90
40153;DHT22;26371;56.992;23.912;2023-06-19T06:20:04;20.60;99.90
40153;DHT22;26371;56.992;23.912;2023-06-19T06:22:37;20.60;99.90
40153;DHT22;26371;56.992;23.912;2023-06-19T06:25:06;20.60;99.90
40153;DHT22;26371;56.992;23.912;2023-06-19T06:27:38;20.60;99.90
40153;DHT22;26371;56.992;23.912;2023-06-19T06:30:07;20.50;99.90
40153;DHT22;26371;56.992;23.912;2023-06-19T06:32:36;20.50;99.90
40153;DHT22;26371;56.992;23.912;2023-06-19T06:35:06;20.50;99.90
40153;DHT22;26371;56.992;23.912;2023-06-19T06:37:35;20.50;99.90
40153;DHT22;26371;56.992;23.912;2023-06-19T06:40:04;20.50;99.90
40153;DHT22;26371;56.992;23.912;2023-06-19T06:42:35;20.50;99.90
40153;DHT22;26371;56.992;23.912;2023-06-19T06:45:04;20.50;99.90
40153;DHT22;26371;56.992;23.912;2023-06-19T06:47:34;20.50;99.90
40153;DHT22;26371;56.992;23.912;2023-06-19T06:50:02;20.60;99.90
40153;DHT22;26371;56.992;23.912;2023-06-19T06:52:32;20.60;99.90
40153;DHT22;26371;56.992;23.912;2023-06-19T06:55:01;20.60;99.90
40153;DHT22;26371;56.992;23.912;2023-06-19T06:57:29;20.70;99.90
40153;DHT22;26371;56.992;23.912;2023-06-19T06:59:57;20.70;99.90
40153;DHT22;26371;56.992;23.912;2023-06-19T07:02:26;20.70;99.90
40153;DHT22;26371;56.992;23.912;2023-06-19T07:04:54;20.70;99.90
40153;DHT22;26371;56.992;23.912;2023-06-19T07:07:23;20.80;99.90
40153;DHT22;26371;56.992;23.912;2023-06-19T07:09:53;20.80;99.90
40153;DHT22;26371;56.992;23.912;2023-06-19T07:12:21;20.80;99.90
40153;DHT22;26371;56.992;23.912;2023-06-19T07:14:52;20.80;99.90
40153;DHT22;26371;56.992;23.912;2023-06-19T07:17:21;20.80;99.90
40153;DHT22;26371;56.992;23.912;2023-06-19T07:19:50;20.80;99.90
40153;DHT22;26371;56.992;23.912;2023-06-19T07:22:18;20.80;99.90
40153;DHT22;26371;56.992;23.912;2023-06-19T07:24:46;20.80;99.90
40153;DHT22;26371;56.992;23.912;2023-06-19T07:27:16;20.80;99.90
40153;DHT22;26371;56.992;23.912;2023-06-19T07:29:45;20.90;99.90
40153;DHT22;26371;56.992;23.912;2023-06-19T07:32:13;20.90;99.90
40153;DHT22;26371;56.992;23.912;2023-06-19T07:34:41;20.90;99.90
40153;DHT22;26371;56.992;23.912;2023-06-19T07:37:10;20.90;99.90
40153;DHT22;26371;56.992;23.912;2023-06-19T07:39:44;20.90;99.90
40153;DHT22;26371;56.992;23.912;2023-06-19T07:42:12;20.90;99.90
40153;DHT22;26371;56.992;23.912;2023-06-19T07:44:42;21.00;99.90
40153;DHT22;26371;56.992;23.912;2023-06-19T08:19:29;22.20;99.90
40153;DHT22;26371;56.992;23.912;2023-06-19T08:27:02;22.60;99.90
40153;DHT22;26371;56.992;23.912;2023-06-19T08:29:31;22.90;99.90
40153;DHT22;26371;56.992;23.912;2023-06-19T08:31:59;23.00;99.90
40153;DHT22;26371;56.992;23.912;2023-06-19T08:34:30;23.00;99.90
40153;DHT22;26371;56.992;23.912;2023-06-19T08:36:58;23.10;99.90
40153;DHT22;26371;56.992;23.912;2023-06-19T08:39:26;23.00;99.90
40153;DHT22;26371;56.992;23.912;2023-06-19T08:41:55;23.00;99.90
40153;DHT22;26371;56.992;23.912;2023-06-19T08:44:23;23.00;99.90
40153;DHT22;26371;56.992;23.912;2023-06-19T08:46:52;23.00;99.90
40153;DHT22;26371;56.992;23.912;2023-06-19T08:49:20;23.00;99.90
40153;DHT22;26371;56.992;23.912;2023-06-19T08:51:50;23.00;99.90
40153;DHT22;26371;56.992;23.912;2023-06-19T08:54:18;23.00;99.90
40153;DHT22;26371;56.992;23.912;2023-06-19T08:56:47;23.00;99.90
40153;DHT22;26371;56.992;23.912;2023-06-19T08:59:16;22.90;99.90
40153;DHT22;26371;56.992;23.912;2023-06-19T09:01:46;23.00;99.90
40153;DHT22;26371;56.992;23.912;2023-06-19T09:04:23;23.00;99.90
40153;DHT22;26371;56.992;23.912;2023-06-19T09:06:55;23.00;99.90
40153;DHT22;26371;56.992;23.912;2023-06-19T09:09:24;23.00;99.90
40153;DHT22;26371;56.992;23.912;2023-06-19T09:12:00;23.00;99.90
40153;DHT22;26371;56.992;23.912;2023-06-19T09:14:33;23.00;99.90
40153;DHT22;26371;56.992;23.912;2023-06-19T09:17:02;23.00;99.90
40153;DHT22;26371;56.992;23.912;2023-06-19T09:19:31;23.00;99.90
40153;DHT22;26371;56.992;23.912;2023-06-19T09:22:03;23.00;99.90
40153;DHT22;26371;56.992;23.912;2023-06-19T09:24:34;23.00;99.90
40153;DHT22;26371;56.992;23.912;2023-06-19T09:27:07;23.00;99.90
40153;DHT22;26371;56.992;23.912;2023-06-19T09:29:38;23.00;99.90
40153;DHT22;26371;56.992;23.912;2023-06-19T09:32:17;23.00;99.90
40153;DHT22;26371;56.992;23.912;2023-06-19T09:34:47;22.90;99.90
40153;DHT22;26371;56.992;23.912;2023-06-19T09:37:21;22.90;99.90
40153;DHT22;26371;56.992;23.912;2023-06-19T09:39:51;22.90;99.90
40153;DHT22;26371;56.992;23.912;2023-06-19T09:42:22;22.80;99.90
40153;DHT22;26371;56.992;23.912;2023-06-19T09:44:52;22.80;99.90
40153;DHT22;26371;56.992;23.912;2023-06-19T09:47:23;22.80;99.90
40153;DHT22;26371;56.992;23.912;2023-06-19T09:49:54;22.80;99.90
40153;DHT22;26371;56.992;23.912;2023-06-19T09:52:25;22.80;99.90
40153;DHT22;26371;56.992;23.912;2023-06-19T09:55:05;22.90;99.90
40153;DHT22;26371;56.992;23.912;2023-06-19T09:57:35;22.90;99.90
40153;DHT22;26371;56.992;23.912;2023-06-19T10:00:05;22.90;99.90
40153;DHT22;26371;56.992;23.912;2023-06-19T10:02:39;23.00;99.90
40153;DHT22;26371;56.992;23.912;2023-06-19T10:05:08;23.00;99.90
40153;DHT22;26371;56.992;23.912;2023-06-19T10:07:43;23.00;99.90
40153;DHT22;26371;56.992;23.912;2023-06-19T10:10:12;23.10;99.90
40153;DHT22;26371;56.992;23.912;2023-06-19T10:12:41;23.10;99.90
40153;DHT22;26371;56.992;23.912;2023-06-19T10:15:15;23.20;99.90
40153;DHT22;26371;56.992;23.912;2023-06-19T10:17:47;23.30;99.90
40153;DHT22;26371;56.992;23.912;2023-06-19T10:20:22;23.30;99.90
40153;DHT22;26371;56.992;23.912;2023-06-19T10:22:56;23.40;99.90
40153;DHT22;26371;56.992;23.912;2023-06-19T10:25:27;23.30;99.90
40153;DHT22;26371;56.992;23.912;2023-06-19T10:27:56;23.40;99.90
40153;DHT22;26371;56.992;23.912;2023-06-19T10:30:25;23.50;99.90
40153;DHT22;26371;56.992;23.912;2023-06-19T10:32:54;23.50;99.90
40153;DHT22;26371;56.992;23.912;2023-06-19T10:35:22;23.50;99.90
40153;DHT22;26371;56.992;23.912;2023-06-19T10:37:52;23.60;99.90
40153;DHT22;26371;56.992;23.912;2023-06-19T10:40:21;23.60;99.90
40153;DHT22;26371;56.992;23.912;2023-06-19T10:42:50;23.60;99.90
40153;DHT22;26371;56.992;23.912;2023-06-19T10:45:19;23.70;99.90
40153;DHT22;26371;56.992;23.912;2023-06-19T10:47:53;23.70;99.90
40153;DHT22;26371;56.992;23.912;2023-06-19T10:50:22;23.80;99.90
40153;DHT22;26371;56.992;23.912;2023-06-19T10:52:52;23.80;99.90
40153;DHT22;26371;56.992;23.912;2023-06-19T10:55:25;23.80;99.90
40153;DHT22;26371;56.992;23.912;2023-06-19T10:57:53;23.90;99.90
40153;DHT22;26371;56.992;23.912;2023-06-19T11:00:22;24.00;99.90
40153;DHT22;26371;56.992;23.912;2023-06-19T11:02:51;24.00;99.90
40153;DHT22;26371;56.992;23.912;2023-06-19T11:05:20;24.00;99.90
40153;DHT22;26371;56.992;23.912;2023-06-19T11:07:52;24.10;99.90
40153;DHT22;26371;56.992;23.912;2023-06-19T11:10:21;23.90;99.90
40153;DHT22;26371;56.992;23.912;2023-06-19T11:12:54;23.60;99.90
40153;DHT22;26371;56.992;23.912;2023-06-19T11:15:29;23.40;99.90
40153;DHT22;26371;56.992;23.912;2023-06-19T11:17:58;23.30;99.90
40153;DHT22;26371;56.992;23.912;2023-06-19T11:20:26;23.20;99.90
40153;DHT22;26371;56.992;23.912;2023-06-19T11:22:55;23.10;99.90
40153;DHT22;26371;56.992;23.912;2023-06-19T11:25:34;23.10;99.90
40153;DHT22;26371;56.992;23.912;2023-06-19T11:28:04;23.00;99.90
40153;DHT22;26371;56.992;23.912;2023-06-19T11:30:33;23.00;99.90
40153;DHT22;26371;56.992;23.912;2023-06-19T11:33:02;22.90;99.90
40153;DHT22;26371;56.992;23.912;2023-06-19T11:38:01;22.80;99.90
40153;DHT22;26371;56.992;23.912;2023-06-19T11:40:38;22.80;99.90
40153;DHT22;26371;56.992;23.912;2023-06-19T11:43:08;22.70;99.90
40153;DHT22;26371;56.992;23.912;2023-06-19T11:45:47;22.60;99.90
40153;DHT22;26371;56.992;23.912;2023-06-19T11:48:21;22.50;99.90
40153;DHT22;26371;56.992;23.912;2023-06-19T11:50:49;22.40;99.90
40153;DHT22;26371;56.992;23.912;2023-06-19T11:53:18;22.30;99.90
40153;DHT22;26371;56.992;23.912;2023-06-19T11:55:47;22.30;99.90
40153;DHT22;26371;56.992;23.912;2023-06-19T11:58:17;22.10;99.90
40153;DHT22;26371;56.992;23.912;2023-06-19T12:00:47;22.10;99.90
40153;DHT22;26371;56.992;23.912;2023-06-19T12:03:15;22.10;99.90
40153;DHT22;26371;56.992;23.912;2023-06-19T12:08:13;22.00;99.90
40153;DHT22;26371;56.992;23.912;2023-06-19T12:10:41;22.00;99.90
40153;DHT22;26371;56.992;23.912;2023-06-19T12:13:10;21.90;99.90
40153;DHT22;26371;56.992;23.912;2023-06-19T12:15:40;21.90;99.90
40153;DHT22;26371;56.992;23.912;2023-06-19T12:18:08;21.90;99.90
40153;DHT22;26371;56.992;23.912;2023-06-19T12:20:39;21.90;99.90
40153;DHT22;26371;56.992;23.912;2023-06-19T12:23:07;21.90;99.90
40153;DHT22;26371;56.992;23.912;2023-06-19T12:25:36;21.90;99.90
40153;DHT22;26371;56.992;23.912;2023-06-19T12:28:04;21.80;99.90
40153;DHT22;26371;56.992;23.912;2023-06-19T12:30:35;21.80;99.90
40153;DHT22;26371;56.992;23.912;2023-06-19T12:33:05;21.90;99.90
40153;DHT22;26371;56.992;23.912;2023-06-19T12:35:34;21.90;99.90
40153;DHT22;26371;56.992;23.912;2023-06-19T12:38:03;22.00;99.90
40153;DHT22;26371;56.992;23.912;2023-06-19T12:40:33;22.00;99.90
40153;DHT22;26371;56.992;23.912;2023-06-19T12:43:01;22.00;99.90
40153;DHT22;26371;56.992;23.912;2023-06-19T12:45:30;21.90;99.90
40153;DHT22;26371;56.992;23.912;2023-06-19T12:47:59;21.90;99.90
40153;DHT22;26371;56.992;23.912;2023-06-19T12:50:28;21.80;99.90
40153;DHT22;26371;56.992;23.912;2023-06-19T12:52:57;21.80;99.90
40153;DHT22;26371;56.992;23.912;2023-06-19T12:55:25;21.70;99.90
40153;DHT22;26371;56.992;23.912;2023-06-19T12:57:54;21.70;99.90
40153;DHT22;26371;56.992;23.912;2023-06-19T13:00:22;21.70;99.90
40153;DHT22;26371;56.992;23.912;2023-06-19T13:02:51;21.80;99.90
40153;DHT22;26371;56.992;23.912;2023-06-19T13:05:19;21.70;99.90
40153;DHT22;26371;56.992;23.912;2023-06-19T13:07:49;21.80;99.90
40153;DHT22;26371;56.992;23.912;2023-06-19T13:10:18;21.80;99.90
40153;DHT22;26371;56.992;23.912;2023-06-19T13:12:46;21.90;99.90
40153;DHT22;26371;56.992;23.912;2023-06-19T13:15:15;21.90;99.90
40153;DHT22;26371;56.992;23.912;2023-06-19T13:17:43;22.00;99.90
40153;DHT22;26371;56.992;23.912;2023-06-19T13:20:12;22.00;99.90
40153;DHT22;26371;56.992;23.912;2023-06-19T13:22:41;22.20;99.90
40153;DHT22;26371;56.992;23.912;2023-06-19T13:25:11;22.20;99.90
40153;DHT22;26371;56.992;23.912;2023-06-19T13:27:39;22.20;99.90
40153;DHT22;26371;56.992;23.912;2023-06-19T13:30:08;22.30;99.90
40153;DHT22;26371;56.992;23.912;2023-06-19T13:32:36;22.20;99.90
40153;DHT22;26371;56.992;23.912;2023-06-19T13:35:05;22.10;99.90
40153;DHT22;26371;56.992;23.912;2023-06-19T13:37:34;22.10;99.90
40153;DHT22;26371;56.992;23.912;2023-06-19T13:40:03;22.10;99.90
40153;DHT22;26371;56.992;23.912;2023-06-19T13:42:33;22.20;99.90
40153;DHT22;26371;56.992;23.912;2023-06-19T13:45:02;22.10;99.90
40153;DHT22;26371;56.992;23.912;2023-06-19T13:47:31;21.90;99.90
40153;DHT22;26371;56.992;23.912;2023-06-19T13:49:59;21.80;99.90
40153;DHT22;26371;56.992;23.912;2023-06-19T13:52:28;21.70;99.90
40153;DHT22;26371;56.992;23.912;2023-06-19T13:54:56;21.60;99.90
40153;DHT22;26371;56.992;23.912;2023-06-19T13:57:25;21.60;99.90
40153;DHT22;26371;56.992;23.912;2023-06-19T13:59:54;21.50;99.90
40153;DHT22;26371;56.992;23.912;2023-06-19T14:02:23;21.40;99.90
40153;DHT22;26371;56.992;23.912;2023-06-19T14:04:51;21.30;99.90
40153;DHT22;26371;56.992;23.912;2023-06-19T15:39:08;20.60;99.90
40153;DHT22;26371;56.992;23.912;2023-06-19T15:41:36;20.60;99.90
40153;DHT22;26371;56.992;23.912;2023-06-19T15:44:05;20.50;99.90
40153;DHT22;26371;56.992;23.912;2023-06-19T15:46:33;20.40;99.90
40153;DHT22;26371;56.992;23.912;2023-06-19T15:49:02;20.40;99.90
40153;DHT22;26371;56.992;23.912;2023-06-19T15:51:30;20.30;99.90
40153;DHT22;26371;56.992;23.912;2023-06-19T15:53:58;20.20;99.90
40153;DHT22;26371;56.992;23.912;2023-06-19T15:56:28;20.30;99.90
40153;DHT22;26371;56.992;23.912;2023-06-19T15:58:57;20.20;99.90
40153;DHT22;26371;56.992;23.912;2023-06-19T16:01:25;20.20;99.90
40153;DHT22;26371;56.992;23.912;2023-06-19T16:03:53;20.30;99.90
40153;DHT22;26371;56.992;23.912;2023-06-19T16:06:22;20.30;99.90
40153;DHT22;26371;56.992;23.912;2023-06-19T16:08:50;20.30;99.90
40153;DHT22;26371;56.992;23.912;2023-06-19T16:11:23;20.30;99.90
40153;DHT22;26371;56.992;23.912;2023-06-19T16:13:53;20.20;99.90
40153;DHT22;26371;56.992;23.912;2023-06-19T16:16:22;20.20;99.90
40153;DHT22;26371;56.992;23.912;2023-06-19T16:18:51;20.20;99.90
40153;DHT22;26371;56.992;23.912;2023-06-19T16:21:19;20.20;99.90
40153;DHT22;26371;56.992;23.912;2023-06-19T16:23:49;20.10;99.90
40153;DHT22;26371;56.992;23.912;2023-06-19T17:14:16;19.70;99.90
40153;DHT22;26371;56.992;23.912;2023-06-19T17:16:48;19.80;99.90
40153;DHT22;26371;56.992;23.912;2023-06-19T17:19:18;19.50;99.90
40153;DHT22;26371;56.992;23.912;2023-06-19T17:21:47;19.40;99.90
40153;DHT22;26371;56.992;23.912;2023-06-19T17:24:16;19.30;99.90
40153;DHT22;26371;56.992;23.912;2023-06-19T17:26:45;19.30;99.90
40153;DHT22;26371;56.992;23.912;2023-06-19T17:29:14;19.20;99.90
40153;DHT22;26371;56.992;23.912;2023-06-19T17:31:45;19.20;99.90
40153;DHT22;26371;56.992;23.912;2023-06-19T17:34:17;19.10;99.90
40153;DHT22;26371;56.992;23.912;2023-06-19T17:39:18;19.00;99.90
40153;DHT22;26371;56.992;23.912;2023-06-19T17:41:46;18.90;99.90
40153;DHT22;26371;56.992;23.912;2023-06-19T17:44:18;18.80;99.90
